createdAt,value
2022-10-28T00:04:18.895Z,17.03
2022-10-28T00:14:21.650Z,16.84
2022-10-28T00:24:25.503Z,16.86
2022-10-28T00:34:27.921Z,16.80
2022-10-28T00:44:57.377Z,16.74
2022-10-28T00:55:02.981Z,16.80
2022-10-28T01:05:05.715Z,16.59
2022-10-28T01:15:13.483Z,16.51
2022-10-28T01:25:25.512Z,16.53
2022-10-28T01:35:33.559Z,16.42
2022-10-28T01:45:39.291Z,16.14
2022-10-28T01:55:46.691Z,16.02
2022-10-28T02:05:49.958Z,15.87
2022-10-28T02:15:58.054Z,15.75
2022-10-28T02:26:02.908Z,15.65
2022-10-28T02:36:08.482Z,15.48
2022-10-28T02:46:12.084Z,15.23
2022-10-28T02:56:17.520Z,15.07
2022-10-28T03:06:20.170Z,15.18
2022-10-28T03:16:23.951Z,15.33
2022-10-28T03:26:28.145Z,15.44
2022-10-28T03:36:31.882Z,15.47
2022-10-28T03:46:36.032Z,15.64
2022-10-28T03:56:40.470Z,15.60
2022-10-28T04:06:42.839Z,15.61
2022-10-28T04:16:46.612Z,15.71
2022-10-28T04:26:49.065Z,15.62
2022-10-28T04:36:52.836Z,15.70
2022-10-28T04:46:56.402Z,15.85
2022-10-28T04:57:00.196Z,15.96
2022-10-28T05:07:02.643Z,16.12
2022-10-28T05:17:06.405Z,16.17
2022-10-28T05:27:08.771Z,16.11
2022-10-28T05:37:12.528Z,16.17
2022-10-28T05:47:14.937Z,16.05
2022-10-28T05:57:18.684Z,16.09
2022-10-28T06:07:21.095Z,16.09
2022-10-28T06:17:23.384Z,15.90
2022-10-28T06:27:25.801Z,16.01
2022-10-28T06:37:29.588Z,15.99
2022-10-28T06:47:36.576Z,15.94
2022-10-28T06:57:42.675Z,15.95
2022-10-28T07:07:45.094Z,16.19
2022-10-28T07:17:53.725Z,16.34
2022-10-28T07:27:57.671Z,16.52
2022-10-28T07:38:01.607Z,16.49
2022-10-28T07:48:04.139Z,16.66
2022-10-28T07:58:07.934Z,16.78
2022-10-28T08:08:10.539Z,16.89
2022-10-28T08:18:14.503Z,17.08
2022-10-28T08:28:17.029Z,17.29
2022-10-28T08:38:20.834Z,17.38
2022-10-28T08:48:29.768Z,17.52
2022-10-28T08:58:35.387Z,17.59
2022-10-28T09:08:40.002Z,17.70
2022-10-28T09:18:54.163Z,17.86
2022-10-28T09:29:02.794Z,17.93
2022-10-28T09:39:08.203Z,18.08
2022-10-28T09:49:12.968Z,18.27
2022-10-28T09:59:20.192Z,18.55
2022-10-28T10:09:24.636Z,18.91
2022-10-28T10:19:28.440Z,19.41
2022-10-28T10:29:32.117Z,19.64
2022-10-28T10:39:38.063Z,19.69
2022-10-28T10:49:40.470Z,19.75
2022-10-28T10:59:48.483Z,20.06
2022-10-28T11:09:51.658Z,20.52
2022-10-28T11:19:57.755Z,20.99
2022-10-28T11:30:01.053Z,21.23
2022-10-28T11:40:13.293Z,21.14
2022-10-28T11:50:29.779Z,21.01
2022-10-28T12:00:41.613Z,21.17
2022-10-28T12:10:52.730Z,21.15
2022-10-28T12:20:58.974Z,21.27
2022-10-28T12:31:02.599Z,22.59
2022-10-28T12:41:10.040Z,23.31
2022-10-28T12:51:15.172Z,24.47
2022-10-28T13:01:20.348Z,25.28
2022-10-28T13:11:39.011Z,25.90
2022-10-28T13:21:54.024Z,25.81
2022-10-28T13:31:56.717Z,25.37
2022-10-28T13:42:26.283Z,25.06
2022-10-28T13:52:30.033Z,24.97
2022-10-28T14:02:37.190Z,24.86
2022-10-28T14:12:44.269Z,24.64
2022-10-28T14:22:46.795Z,24.24
2022-10-28T14:33:00.549Z,24.12
2022-10-28T14:43:17.746Z,23.96
2022-10-28T14:53:26.010Z,23.76
2022-10-28T15:03:28.580Z,23.48
2022-10-28T15:13:32.312Z,23.24
2022-10-28T15:23:35.314Z,23.03
2022-10-28T15:33:40.142Z,22.94
2022-10-28T15:43:42.549Z,22.61
2022-10-28T15:53:46.366Z,22.54
2022-10-28T16:03:48.751Z,22.23
2022-10-28T16:13:52.558Z,21.95
2022-10-28T16:23:56.293Z,21.81
2022-10-28T16:34:00.427Z,21.85
2022-10-28T16:44:02.920Z,21.56
2022-10-28T16:54:07.487Z,21.29
2022-10-28T17:04:10.102Z,21.03
2022-10-28T17:14:13.897Z,20.78
2022-10-28T17:24:16.381Z,20.81
2022-10-28T17:34:20.276Z,20.88
2022-10-28T17:44:22.701Z,20.86
2022-10-28T17:54:26.437Z,20.74
2022-10-28T18:04:30.154Z,20.56
2022-10-28T18:14:33.902Z,20.52
2022-10-28T18:24:36.430Z,20.50
2022-10-28T18:34:40.235Z,20.41
2022-10-28T18:44:42.756Z,20.33
2022-10-28T18:54:46.494Z,20.29
2022-10-28T19:04:48.914Z,20.24
2022-10-28T19:14:52.727Z,20.18
2022-10-28T19:24:55.166Z,20.09
2022-10-28T19:34:58.920Z,20.08
2022-10-28T19:45:03.794Z,19.84
2022-10-28T19:55:10.913Z,19.71
2022-10-28T20:05:16.194Z,19.74
2022-10-28T20:15:19.959Z,19.66
2022-10-28T20:25:22.421Z,19.62
2022-10-28T20:35:26.188Z,19.51
2022-10-28T20:45:28.646Z,19.45
2022-10-28T20:55:32.481Z,19.14
2022-10-28T21:05:34.902Z,19.06
2022-10-28T21:15:39.851Z,18.94
2022-10-28T21:25:42.234Z,18.85
2022-10-28T21:35:46.025Z,18.82
2022-10-28T21:45:48.437Z,18.72
2022-10-28T21:55:53.867Z,18.77
2022-10-28T22:05:57.400Z,18.64
2022-10-28T22:16:02.082Z,18.55
2022-10-28T22:26:04.815Z,18.51
2022-10-28T22:36:10.073Z,18.37
2022-10-28T22:46:13.248Z,18.39
2022-10-28T22:56:20.023Z,18.36
2022-10-28T23:06:23.400Z,18.32
2022-10-28T23:16:27.167Z,18.24
2022-10-28T23:26:30.575Z,18.21
2022-10-28T23:36:35.002Z,18.16
2022-10-28T23:46:37.847Z,18.14
2022-10-28T23:56:41.608Z,18.05
